Time;durP1;ratioP1;P1;durP2;ratioP2;P2;SDS_P1;SDS_P2;PMS_P1;PMS_P2;Temp;Humidity;BMP_temperature;BMP_pressure;BME280_temperature;BME280_humidity;BME280_pressure;Samples;Min_cycle;Max_cycle;Signal;HPM_P1;HPM_P2
2022/04/26 03:37:55;;;;;;;;;;;;;;;;;;5061110;28;19919;-49
2022/04/26 03:40:20;;;;;;;;;;;18.00;90.60;;;;;;5054252;28;19908;-47
2022/04/26 03:42:46;;;;;;;;;;;18.00;88.30;;;;;;5054165;28;20371;-48
2022/04/26 03:45:12;;;;;;;;;;;;;;;;;;5054088;28;19948;-47
2022/04/26 03:47:38;;;;;;;;;;;;;;;;;;5054106;28;19916;-48
2022/04/26 03:50:03;;;;;;;;;;;18.00;90.60;;;;;;5053943;28;19953;-48
2022/04/26 03:52:29;;;;;;;;;;;17.90;90.50;;;;;;5053954;28;19912;-47
2022/04/26 03:54:54;;;;;;;;;;;17.90;90.60;;;;;;5054242;28;19944;-48
2022/04/26 03:57:20;;;;;;;;;;;;;;;;;;5053838;28;19924;-48
2022/04/26 03:59:46;;;;;;;;;;;;;;;;;;5053758;28;19915;-47
2022/04/26 04:02:12;;;;;;;;;;;;;;;;;;5053481;28;19917;-48
2022/04/26 04:04:38;;;;;;;;;;;;;;;;;;5053735;28;19908;-48
2022/04/26 04:07:03;;;;;;;;;;;18.00;90.70;;;;;;5053677;28;20397;-48
2022/04/26 04:09:29;;;;;;;;;;;17.90;90.50;;;;;;5053638;28;19912;-47
2022/04/26 04:11:54;;;;;;;;;;;18.00;90.70;;;;;;5053622;28;19959;-50
2022/04/26 04:14:20;;;;;;;;;;;;;;;;;;5053829;28;19909;-48
2022/04/26 04:16:46;;;;;;;;;;;;;;;;;;5053444;28;19960;-47
2022/04/26 04:19:18;;;;;;;;;;;;;;;;;;5053464;28;19963;-49
2022/04/26 04:21:45;;;;;;;;;;;;;;;;;;5053489;28;19913;-47
2022/04/26 04:24:11;;;;;;;;;;;17.80;90.30;;;;;;5053641;28;20431;-47
2022/04/26 04:26:36;;;;;;;;;;;17.80;90.60;;;;;;5053672;28;19948;-48
2022/04/26 04:29:03;;;;;;;;;;;;;;;;;;5053310;28;19959;-47
2022/04/26 04:31:28;;;;;;;;;;;17.90;88.60;;;;;;5053367;28;19908;-48
2022/04/26 04:33:54;;;;;;;;;;;;;;;;;;5053278;28;20446;-48
2022/04/26 04:36:20;;;;;;;;;;;;;;;;;;5053070;28;19966;-48
2022/04/26 04:38:46;;;;;;;;;;;;;;;;;;5053191;28;19932;-47
2022/04/26 04:41:11;;;;;;;;;;;17.90;90.60;;;;;;5053066;28;19909;-47
2022/04/26 04:43:36;;;;;;;;;;;17.80;90.70;;;;;;5052924;28;19909;-48
2022/04/26 04:46:02;;;;;;;;;;;17.90;87.70;;;;;;5053027;28;19916;-48
2022/04/26 04:48:28;;;;;;;;;;;;;;;;;;5052962;28;20003;-47
2022/04/26 04:50:54;;;;;;;;;;;;;;;;;;5052986;28;19910;-47
2022/04/26 04:53:20;;;;;;;;;;;;;;;;;;5052838;28;19912;-47
2022/04/26 04:55:46;;;;;;;;;;;;;;;;;;5053091;28;19916;-47
2022/04/26 04:58:12;;;;;;;;;;;;;;;;;;5052829;28;20337;-46
2022/04/26 05:00:37;;;;;;;;;;;17.80;90.70;;;;;;5052729;28;20259;-47
2022/04/26 05:03:03;;;;;;;;;;;17.80;90.60;;;;;;5052583;28;19921;-48
2022/04/26 05:05:28;;;;;;;;;;;17.80;90.50;;;;;;5053004;28;19909;-47
2022/04/26 05:07:54;;;;;;;;;;;17.80;87.50;;;;;;5052795;28;20375;-48
2022/04/26 05:10:20;;;;;;;;;;;;;;;;;;5052800;28;19912;-47
2022/04/26 05:12:46;;;;;;;;;;;;;;;;;;5052679;28;19909;-48
2022/04/26 05:15:11;;;;;;;;;;;17.90;90.60;;;;;;5052558;28;19909;-49
2022/04/26 05:17:38;;;;;;;;;;;;;;;;;;5051168;28;20096;-50
2022/04/26 05:20:04;;;;;;;;;;;;;;;;;;5052575;28;20279;-49
2022/04/26 05:22:30;;;;;;;;;;;;;;;;;;5052540;28;19909;-48
2022/04/26 05:24:58;;;;;;;;;;;;;;;;;;5052453;28;19909;-48
2022/04/26 05:27:24;;;;;;;;;;;;;;;;;;5052360;28;19904;-49
2022/04/26 05:29:50;;;;;;;;;;;;;;;;;;5052647;28;19919;-50
2022/04/26 05:32:18;;;;;;;;;;;;;;;;;;5052287;28;19995;-49
2022/04/26 05:34:44;;;;;;;;;;;;;;;;;;5052244;28;19920;-49
2022/04/26 05:37:10;;;;;;;;;;;;;;;;;;5052448;28;20299;-49
2022/04/26 05:39:36;;;;;;;;;;;;;;;;;;5052179;28;19909;-49
2022/04/26 05:42:01;;;;;;;;;;;18.00;90.40;;;;;;5052159;28;19915;-49
2022/04/26 05:44:27;;;;;;;;;;;17.80;90.30;;;;;;5052427;28;19909;-50
2022/04/26 05:46:52;;;;;;;;;;;17.90;87.80;;;;;;5052218;28;19963;-49
2022/04/26 05:49:18;;;;;;;;;;;;;;;;;;5052071;28;19909;-49
2022/04/26 05:51:44;;;;;;;;;;;;;;;;;;5052043;28;19920;-49
2022/04/26 05:54:10;;;;;;;;;;;;;;;;;;5052101;28;19978;-49
2022/04/26 05:56:35;;;;;;;;;;;18.00;90.20;;;;;;5055541;28;20375;-51
2022/04/26 05:59:01;;;;;;;;;;;18.00;90.20;;;;;;5056086;28;19909;-50
2022/04/26 06:01:26;;;;;;;;;;;18.00;90.40;;;;;;5056010;28;19945;-50
2022/04/26 06:03:52;;;;;;;;;;;;;;;;;;5056046;28;19920;-49
2022/04/26 06:06:19;;;;;;;;;;;;;;;;;;5056275;28;19909;-51
2022/04/26 06:08:44;;;;;;;;;;;18.00;87.70;;;;;;5056168;28;19931;-51
2022/04/26 06:11:10;;;;;;;;;;;;;;;;;;5055936;28;20450;-51
2022/04/26 06:13:36;;;;;;;;;;;;;;;;;;5055697;28;19908;-50
2022/04/26 06:16:02;;;;;;;;;;;;;;;;;;5055948;28;19960;-49
2022/04/26 06:18:27;;;;;;;;;;;17.90;90.60;;;;;;5055795;28;19916;-49
2022/04/26 06:20:53;;;;;;;;;;;17.90;90.40;;;;;;5055576;28;19952;-49
2022/04/26 06:23:18;;;;;;;;;;;17.90;87.40;;;;;;5055979;28;19963;-50
2022/04/26 06:25:44;;;;;;;;;;;;;;;;;;5055448;28;20264;-50
2022/04/26 06:28:10;;;;;;;;;;;;;;;;;;5055559;28;19916;-49
2022/04/26 06:30:37;;;;;;;;;;;;;;;;;;5055722;28;19909;-49
2022/04/26 06:33:02;;;;;;;;;;;18.00;88.20;;;;;;5055575;28;20007;-48
2022/04/26 06:35:28;;;;;;;;;;;;;;;;;;5055318;28;20011;-49
2022/04/26 06:37:54;;;;;;;;;;;;;;;;;;5055348;28;19913;-49
2022/04/26 06:40:20;;;;;;;;;;;;;;;;;;5055336;28;19979;-49
2022/04/26 06:42:45;;;;;;;;;;;18.00;90.40;;;;;;5055253;28;19962;-49
2022/04/26 06:45:10;;;;;;;;;;;17.90;90.30;;;;;;5055136;28;20375;-49
2022/04/26 06:47:37;;;;;;;;;;;;;;;;;;5055345;28;19909;-49
2022/04/26 06:50:03;;;;;;;;;;;17.90;88.50;;;;;;5055115;28;20428;-49
2022/04/26 06:52:28;;;;;;;;;;;17.90;90.30;;;;;;5054968;28;19909;-49
2022/04/26 06:54:54;;;;;;;;;;;;;;;;;;5055275;28;19916;-49
2022/04/26 06:57:20;;;;;;;;;;;;;;;;;;5054906;28;20371;-48
2022/04/26 06:59:46;;;;;;;;;;;;;;;;;;5054859;28;20003;-49
2022/04/26 07:02:12;;;;;;;;;;;;;;;;;;5054760;28;19920;-54
2022/04/26 07:04:38;;;;;;;;;;;;;;;;;;5054834;28;20252;-53
2022/04/26 07:07:03;;;;;;;;;;;17.90;90.30;;;;;;5053460;28;19909;-55
2022/04/26 07:09:29;;;;;;;;;;;18.10;90.30;;;;;;5054659;28;19962;-53
2022/04/26 07:11:54;;;;;;;;;;;17.90;87.00;;;;;;5054700;28;19909;-55
2022/04/26 07:14:20;;;;;;;;;;;;;;;;;;5054939;28;19959;-52
2022/04/26 07:16:48;;;;;;;;;;;;;;;;;;5054457;28;19987;-53
2022/04/26 07:19:14;;;;;;;;;;;;;;;;;;5055011;28;19909;-48
2022/04/26 07:21:44;;;;;;;;;;;;;;;;;;5054531;28;20292;-48
2022/04/26 07:24:10;;;;;;;;;;;;;;;;;;5054438;28;19913;-50
2022/04/26 07:26:36;;;;;;;;;;;;;;;;;;5054413;28;19908;-48
2022/04/26 07:29:02;;;;;;;;;;;;;;;;;;5054248;28;20003;-48
2022/04/26 07:31:30;;;;;;;;;;;;;;;;;;5054193;28;19909;-47
2022/04/26 07:36:40;;;;;;;;;;;;;;;;;;5054093;28;20353;-47
2022/04/26 07:39:06;;;;;;;;;;;;;;;;;;5054047;28;19909;-46
2022/04/26 07:41:32;;;;;;;;;;;;;;;;;;5054243;28;19909;-46
2022/04/26 07:43:58;;;;;;;;;;;;;;;;;;5054317;28;19917;-47
2022/04/26 07:46:24;;;;;;;;;;;;;;;;;;5053923;28;20398;-47
2022/04/26 07:48:50;;;;;;;;;;;;;;;;;;5053940;28;19913;-46
2022/04/26 07:51:18;;;;;;;;;;;;;;;;;;5053905;28;19909;-46
2022/04/26 07:53:44;;;;;;;;;;;;;;;;;;5054221;28;19912;-46
2022/04/26 07:56:09;;;;;;;;;;;17.90;90.50;;;;;;5053855;28;19971;-46
2022/04/26 07:58:35;;;;;;;;;;;;;;;;;;5053740;28;20011;-50
2022/04/26 08:01:01;;;;;;;;;;;17.80;90.40;;;;;;5053590;28;19955;-46
2022/04/26 08:03:27;;;;;;;;;;;;;;;;;;5053279;28;19921;-47
2022/04/26 08:05:53;;;;;;;;;;;18.00;89.50;;;;;;5053804;28;19909;-46
2022/04/26 08:08:19;;;;;;;;;;;17.90;90.40;;;;;;5053383;28;19952;-47
2022/04/26 08:10:44;;;;;;;;;;;18.00;90.50;;;;;;5053449;28;20338;-47
2022/04/26 08:13:11;;;;;;;;;;;;;;;;;;5053413;28;19944;-47
2022/04/26 08:15:37;;;;;;;;;;;17.80;90.10;;;;;;5053395;28;19919;-47
2022/04/26 08:18:02;;;;;;;;;;;18.00;90.20;;;;;;5052866;28;20438;-48
2022/04/26 08:20:28;;;;;;;;;;;;;;;;;;5053436;28;19909;-46
2022/04/26 08:22:54;;;;;;;;;;;;;;;;;;5053167;28;19940;-49
2022/04/26 08:28:04;;;;;;;;;;;18.10;86.60;;;;;;5053389;28;19959;-46
2022/04/26 08:30:30;;;;;;;;;;;;;;;;;;5053526;28;20372;-47
2022/04/26 08:32:56;;;;;;;;;;;;;;;;;;5053209;28;20321;-47
2022/04/26 08:35:22;;;;;;;;;;;18.30;90.00;;;;;;5052846;28;19912;-46
2022/04/26 08:37:48;;;;;;;;;;;;;;;;;;5053213;28;20337;-46
2022/04/26 08:40:14;;;;;;;;;;;;;;;;;;5052770;28;20003;-47
2022/04/26 08:42:40;;;;;;;;;;;;;;;;;;5052904;28;19912;-46
2022/04/26 08:45:06;;;;;;;;;;;;;;;;;;5052957;28;19931;-47
2022/04/26 08:53:01;;;;;;;;;;;;;;;;;;5052894;28;19938;-48
2022/04/26 08:55:27;;;;;;;;;;;;;;;;;;5053002;28;20279;-47
2022/04/26 08:57:53;;;;;;;;;;;18.70;87.50;;;;;;5052778;28;19908;-47
2022/04/26 09:00:18;;;;;;;;;;;;;;;;;;5052629;28;19970;-48
2022/04/26 09:02:44;;;;;;;;;;;;;;;;;;5052542;28;19920;-47
2022/04/26 09:05:10;;;;;;;;;;;;;;;;;;5052629;28;20325;-48
2022/04/26 09:07:39;;;;;;;;;;;;;;;;;;5052484;28;20003;-47
2022/04/26 09:10:05;;;;;;;;;;;;;;;;;;5052914;28;20412;-48
2022/04/26 09:12:30;;;;;;;;;;;19.00;87.90;;;;;;5052628;28;19912;-46
2022/04/26 09:14:56;;;;;;;;;;;;;;;;;;5052543;28;19909;-47
2022/04/26 09:17:22;;;;;;;;;;;19.20;87.60;;;;;;5052497;28;19923;-46
2022/04/26 09:19:48;;;;;;;;;;;19.30;87.70;;;;;;5052394;28;19909;-48
2022/04/26 09:22:14;;;;;;;;;;;;;;;;;;5052760;28;20338;-47
2022/04/26 09:24:40;;;;;;;;;;;;;;;;;;5052356;28;19927;-48
2022/04/26 09:27:06;;;;;;;;;;;;;;;;;;5052522;28;19909;-48
2022/04/26 09:29:31;;;;;;;;;;;;;;;;;;5052616;28;20007;-49
2022/04/26 09:32:02;;;;;;;;;;;19.80;83.90;;;;;;5056540;28;20440;-47
2022/04/26 09:34:29;;;;;;;;;;;;;;;;;;5056403;28;19909;-48
2022/04/26 09:36:55;;;;;;;;;;;19.90;86.00;;;;;;5056438;28;19967;-47
2022/04/26 09:39:20;;;;;;;;;;;;;;;;;;5056290;28;19955;-48
2022/04/26 09:41:46;;;;;;;;;;;;;;;;;;5056598;28;19909;-49
2022/04/26 09:44:12;;;;;;;;;;;;;;;;;;5056358;28;19954;-47
2022/04/26 09:46:38;;;;;;;;;;;;;;;;;;5056350;28;19909;-47
2022/04/26 09:49:04;;;;;;;;;;;;;;;;;;5056179;28;19998;-47
2022/04/26 09:51:29;;;;;;;;;;;20.20;85.00;;;;;;5056062;28;19913;-47
2022/04/26 09:53:55;;;;;;;;;;;20.20;84.20;;;;;;5056199;28;20386;-48
2022/04/26 09:56:21;;;;;;;;;;;20.30;81.60;;;;;;5056080;28;19916;-48
2022/04/26 09:58:47;;;;;;;;;;;;;;;;;;5056042;28;19919;-48
2022/04/26 10:01:14;;;;;;;;;;;20.40;84.00;;;;;;5055952;28;20433;-48
2022/04/26 10:03:40;;;;;;;;;;;;;;;;;;5055941;28;20453;-47
2022/04/26 10:06:06;;;;;;;;;;;20.50;83.80;;;;;;5056024;28;19909;-47
2022/04/26 10:08:32;;;;;;;;;;;;;;;;;;5055847;28;20379;-46
2022/04/26 10:10:59;;;;;;;;;;;;;;;;;;5055794;28;19936;-47
2022/04/26 10:13:32;;;;;;;;;;;20.60;79.50;;;;;;5055800;28;20303;-48
2022/04/26 10:16:01;;;;;;;;;;;20.70;83.00;;;;;;5055708;28;19960;-48
2022/04/26 10:18:27;;;;;;;;;;;;;;;;;;5055973;28;19913;-48
2022/04/26 10:20:53;;;;;;;;;;;;;;;;;;5055510;28;19909;-48
2022/04/26 10:23:19;;;;;;;;;;;;;;;;;;5054986;28;20359;-48
2022/04/26 10:26:03;;;;;;;;;;;20.80;82.70;;;;;;5054737;28;19909;-48
2022/04/26 10:28:32;;;;;;;;;;;20.70;79.80;;;;;;5055260;28;19956;-46
2022/04/26 10:30:59;;;;;;;;;;;;;;;;;;5055407;28;19913;-49
2022/04/26 10:33:34;;;;;;;;;;;20.80;82.10;;;;;;5055391;28;19909;-50
2022/04/26 10:36:00;;;;;;;;;;;;;;;;;;5055311;28;19931;-48
2022/04/26 10:38:26;;;;;;;;;;;;;;;;;;5055131;28;19909;-49
2022/04/26 10:40:52;;;;;;;;;;;;;;;;;;5054852;28;20310;-47
2022/04/26 10:43:18;;;;;;;;;;;;;;;;;;5055233;28;19916;-49
2022/04/26 10:45:44;;;;;;;;;;;;;;;;;;5055197;28;19913;-49
2022/04/26 10:48:23;;;;;;;;;;;20.90;82.10;;;;;;5055204;28;19966;-49
2022/04/26 10:50:49;;;;;;;;;;;20.90;81.80;;;;;;5055376;28;20293;-48
2022/04/26 10:53:15;;;;;;;;;;;;;;;;;;5054726;28;19908;-48
2022/04/26 10:55:40;;;;;;;;;;;21.50;81.10;;;;;;5054837;28;19952;-49
2022/04/26 10:58:06;;;;;;;;;;;;;;;;;;5054972;28;19909;-49
2022/04/26 11:00:34;;;;;;;;;;;;;;;;;;5054855;28;20016;-53
2022/04/26 11:03:00;;;;;;;;;;;;;;;;;;5054572;28;19921;-52
2022/04/26 11:05:26;;;;;;;;;;;;;;;;;;5054838;28;19963;-52
2022/04/26 11:07:51;;;;;;;;;;;21.20;80.90;;;;;;5054758;28;19909;-54
2022/04/26 11:10:24;;;;;;;;;;;21.40;81.30;;;;;;5054757;28;19913;-52
2022/04/26 11:12:55;;;;;;;;;;;21.30;78.60;;;;;;5054256;28;19913;-54
2022/04/26 11:15:22;;;;;;;;;;;21.30;81.40;;;;;;5054556;28;19944;-52
2022/04/26 11:17:49;;;;;;;;;;;;;;;;;;5054917;28;20295;-54
2022/04/26 11:20:14;;;;;;;;;;;21.30;76.70;;;;;;5054752;28;19908;-52
2022/04/26 11:22:40;;;;;;;;;;;;;;;;;;5054560;28;20390;-51
2022/04/26 11:28:00;;;;;;;;;;;21.50;80.00;;;;;;5054459;28;19931;-53
2022/04/26 11:30:29;;;;;;;;;;;;;;;;;;5054507;28;19913;-51
2022/04/26 11:33:04;;;;;;;;;;;21.50;77.40;;;;;;5053910;28;19915;-53
2022/04/26 11:35:31;;;;;;;;;;;;;;;;;;5052964;28;19916;-51
2022/04/26 11:37:57;;;;;;;;;;;;;;;;;;5054333;28;19913;-53
2022/04/26 11:40:22;;;;;;;;;;;;;;;;;;5054327;28;19969;-50
2022/04/26 11:42:48;;;;;;;;;;;;;;;;;;5054084;28;20433;-53
2022/04/26 11:45:14;;;;;;;;;;;;;;;;;;5053999;28;19963;-54
2022/04/26 11:47:40;;;;;;;;;;;;;;;;;;5054076;28;19913;-55
2022/04/26 11:50:06;;;;;;;;;;;;;;;;;;5054264;28;19928;-53
2022/04/26 11:52:32;;;;;;;;;;;;;;;;;;5053154;28;19995;-53
2022/04/26 11:54:58;;;;;;;;;;;;;;;;;;5053970;28;19909;-55
2022/04/26 11:57:24;;;;;;;;;;;21.70;80.60;;;;;;5053676;28;19916;-52
2022/04/26 11:59:50;;;;;;;;;;;;;;;;;;5053901;28;19935;-53
2022/04/26 12:02:16;;;;;;;;;;;;;;;;;;5053372;28;19921;-51
2022/04/26 12:04:42;;;;;;;;;;;;;;;;;;5053584;28;19999;-52
2022/04/26 12:07:08;;;;;;;;;;;;;;;;;;5053545;28;20055;-51
2022/04/26 12:09:34;;;;;;;;;;;21.90;79.90;;;;;;5053696;28;19959;-52
2022/04/26 12:12:00;;;;;;;;;;;;;;;;;;5053598;28;20367;-51
2022/04/26 12:14:26;;;;;;;;;;;;;;;;;;5053641;28;19909;-51
2022/04/26 12:16:56;;;;;;;;;;;;;;;;;;5053341;28;19924;-51
2022/04/26 12:19:22;;;;;;;;;;;;;;;;;;5053333;28;19909;-55
2022/04/26 12:21:51;;;;;;;;;;;21.90;79.60;;;;;;5053184;28;19960;-52
2022/04/26 12:24:17;;;;;;;;;;;;;;;;;;5053448;28;19962;-51
2022/04/26 12:26:43;;;;;;;;;;;;;;;;;;5053461;28;20291;-51
2022/04/26 12:29:08;;;;;;;;;;;;;;;;;;5053134;28;20283;-52
2022/04/26 12:31:34;;;;;;;;;;;;;;;;;;5053364;28;19909;-50
2022/04/26 12:34:12;;;;;;;;;;;;;;;;;;5053046;28;19916;-54
2022/04/26 12:36:38;;;;;;;;;;;;;;;;;;5052992;28;19939;-54
2022/04/26 12:39:04;;;;;;;;;;;;;;;;;;5052847;28;20391;-55
2022/04/26 12:41:45;;;;;;;;;;;21.60;78.20;;;;;;5052836;28;19920;-53
2022/04/26 12:44:10;;;;;;;;;;;;;;;;;;5052881;28;19916;-53
2022/04/26 12:46:36;;;;;;;;;;;;;;;;;;5052957;28;19909;-52
2022/04/26 12:51:48;;;;;;;;;;;;;;;;;;5021842;28;19990;-52
2022/04/26 12:54:15;;;;;;;;;;;;;;;;;;5052655;28;20030;-51
2022/04/26 12:56:54;;;;;;;;;;;21.40;79.30;;;;;;5052532;28;20008;-52
2022/04/26 12:59:20;;;;;;;;;;;;;;;;;;5052623;28;20007;-52
2022/04/26 13:01:46;;;;;;;;;;;;;;;;;;5052632;28;19952;-52
2022/04/26 13:04:12;;;;;;;;;;;;;;;;;;5052620;28;19999;-52
2022/04/26 13:06:37;;;;;;;;;;;21.20;79.40;;;;;;5052608;28;19940;-53
2022/04/26 13:09:03;;;;;;;;;;;21.20;79.30;;;;;;5052417;28;19913;-52
2022/04/26 13:11:29;;;;;;;;;;;21.10;78.90;;;;;;5052617;28;19915;-52
2022/04/26 13:13:54;;;;;;;;;;;21.10;75.20;;;;;;5052509;28;19909;-53
2022/04/26 13:16:20;;;;;;;;;;;;;;;;;;5052589;28;20019;-53
2022/04/26 13:18:46;;;;;;;;;;;;;;;;;;5052356;28;19909;-52
2022/04/26 13:21:13;;;;;;;;;;;;;;;;;;5052439;28;19909;-52
2022/04/26 13:23:38;;;;;;;;;;;21.00;76.90;;;;;;5052431;28;19909;-53
2022/04/26 13:26:06;;;;;;;;;;;;;;;;;;5052520;28;19916;-51
2022/04/26 13:28:32;;;;;;;;;;;20.80;79.70;;;;;;5052438;28;19908;-50
2022/04/26 13:30:57;;;;;;;;;;;20.70;79.70;;;;;;5052449;28;19909;-51
2022/04/26 13:33:23;;;;;;;;;;;20.80;80.00;;;;;;5052354;28;19916;-52
2022/04/26 13:35:48;;;;;;;;;;;20.80;77.00;;;;;;5052340;28;19912;-50
2022/04/26 13:38:14;;;;;;;;;;;;;;;;;;5052746;28;19913;-52
2022/04/26 13:40:40;;;;;;;;;;;;;;;;;;5050935;28;20323;-52
2022/04/26 13:43:06;;;;;;;;;;;;;;;;;;5052197;28;20279;-51
2022/04/26 13:45:32;;;;;;;;;;;;;;;;;;5052462;28;19945;-52
2022/04/26 13:47:58;;;;;;;;;;;;;;;;;;5052068;28;19998;-54
2022/04/26 13:50:25;;;;;;;;;;;;;;;;;;5052011;28;19952;-54
2022/04/26 13:52:50;;;;;;;;;;;;;;;;;;5052243;28;19913;-52
2022/04/26 13:55:17;;;;;;;;;;;;;;;;;;5052379;28;20008;-54
2022/04/26 13:57:44;;;;;;;;;;;20.50;80.50;;;;;;5050814;28;19958;-54
2022/04/26 14:00:11;;;;;;;;;;;20.60;80.80;;;;;;5052137;28;20283;-54
2022/04/26 14:02:37;;;;;;;;;;;;;;;;;;5051861;28;20321;-53
2022/04/26 14:05:04;;;;;;;;;;;20.40;78.70;;;;;;5052219;28;19909;-52
2022/04/26 14:07:29;;;;;;;;;;;20.50;80.50;;;;;;5052284;28;19955;-52
2022/04/26 14:09:55;;;;;;;;;;;;;;;;;;5051892;28;19952;-51
2022/04/26 14:12:21;;;;;;;;;;;20.40;80.50;;;;;;5052015;28;19955;-51
2022/04/26 14:22:59;;;;;;;;;;;20.30;79.80;;;;;;5055912;28;19927;-53
2022/04/26 14:25:24;;;;;;;;;;;20.30;76.60;;;;;;5055781;28;20008;-54
2022/04/26 14:27:51;;;;;;;;;;;;;;;;;;5055792;28;20355;-54
2022/04/26 14:30:16;;;;;;;;;;;;;;;;;;5055457;28;19909;-54
2022/04/26 14:32:44;;;;;;;;;;;;;;;;;;5055220;28;20007;-52
2022/04/26 14:35:10;;;;;;;;;;;20.10;80.70;;;;;;5055452;28;20049;-56
2022/04/26 14:37:36;;;;;;;;;;;;;;;;;;5055127;28;20003;-54
2022/04/26 14:40:03;;;;;;;;;;;;;;;;;;5055343;28;19948;-52
2022/04/26 14:42:29;;;;;;;;;;;20.20;78.50;;;;;;5055191;28;19908;-52
2022/04/26 14:44:55;;;;;;;;;;;20.20;78.00;;;;;;5055189;28;20286;-54
2022/04/26 14:47:20;;;;;;;;;;;20.20;79.30;;;;;;5055170;28;19961;-55
2022/04/26 14:49:49;;;;;;;;;;;;;;;;;;5054976;28;20392;-53
2022/04/26 14:52:16;;;;;;;;;;;20.10;78.40;;;;;;5055064;28;19935;-54
2022/04/26 14:54:41;;;;;;;;;;;20.30;81.00;;;;;;5055011;28;20330;-55
2022/04/26 14:57:07;;;;;;;;;;;20.00;80.90;;;;;;5055046;28;19916;-55
2022/04/26 14:59:32;;;;;;;;;;;20.10;78.50;;;;;;5055088;28;20414;-53
2022/04/26 15:01:58;;;;;;;;;;;;;;;;;;5054554;28;19972;-54
2022/04/26 15:04:25;;;;;;;;;;;;;;;;;;5054896;28;19915;-55
2022/04/26 15:06:51;;;;;;;;;;;20.20;80.60;;;;;;5054827;28;19909;-52
2022/04/26 15:17:33;;;;;;;;;;;;;;;;;;5054622;28;20028;-52
2022/04/26 15:20:00;;;;;;;;;;;;;;;;;;5054421;28;20380;-52
2022/04/26 15:22:26;;;;;;;;;;;20.10;81.10;;;;;;5054568;28;19915;-51
2022/04/26 15:24:53;;;;;;;;;;;20.00;81.00;;;;;;5054613;28;19909;-53
2022/04/26 15:27:19;;;;;;;;;;;;;;;;;;5053518;28;19932;-51
2022/04/26 15:29:44;;;;;;;;;;;;;;;;;;5053946;28;19909;-53
2022/04/26 15:32:10;;;;;;;;;;;;;;;;;;5054416;28;19913;-50
2022/04/26 15:34:37;;;;;;;;;;;;;;;;;;5054204;28;19908;-51
2022/04/26 15:37:03;;;;;;;;;;;;;;;;;;5054086;28;19916;-51
2022/04/26 15:39:29;;;;;;;;;;;;;;;;;;5054074;28;19909;-50
2022/04/26 15:41:54;;;;;;;;;;;;;;;;;;5053960;28;19916;-52
2022/04/26 15:44:20;;;;;;;;;;;;;;;;;;5053940;28;19916;-51
2022/04/26 15:46:48;;;;;;;;;;;;;;;;;;5053849;28;20406;-51
2022/04/26 15:49:14;;;;;;;;;;;;;;;;;;5053786;28;19994;-51
2022/04/26 15:51:40;;;;;;;;;;;;;;;;;;5053775;28;20570;-51
2022/04/26 15:54:05;;;;;;;;;;;20.00;81.40;;;;;;5053917;28;19909;-51
2022/04/26 15:56:31;;;;;;;;;;;20.00;81.00;;;;;;5053844;28;19917;-51
2022/04/26 15:58:58;;;;;;;;;;;;;;;;;;5053791;28;20142;-51
2022/04/26 16:01:26;;;;;;;;;;;;;;;;;;5053372;28;20524;-51
2022/04/26 16:03:52;;;;;;;;;;;;;;;;;;5053912;28;20170;-51
2022/04/26 16:06:19;;;;;;;;;;;;;;;;;;5053501;28;20170;-51
2022/04/26 16:08:44;;;;;;;;;;;;;;;;;;5053857;28;19909;-53
2022/04/26 16:22:09;;;;;;;;;;;;;;;;;;5053295;28;19919;-51
2022/04/26 16:24:40;;;;;;;;;;;;;;;;;;5053504;28;19908;-51
2022/04/26 16:27:06;;;;;;;;;;;;;;;;;;5053128;28;20290;-51
2022/04/26 16:29:32;;;;;;;;;;;;;;;;;;5053057;28;20000;-51
2022/04/26 16:31:58;;;;;;;;;;;;;;;;;;5053200;28;19932;-53
2022/04/26 16:34:23;;;;;;;;;;;20.00;79.40;;;;;;5053274;28;19952;-51
2022/04/26 16:36:49;;;;;;;;;;;19.80;77.90;;;;;;5052909;28;19917;-51
2022/04/26 16:39:14;;;;;;;;;;;19.90;78.20;;;;;;5052937;28;19909;-51
2022/04/26 16:41:40;;;;;;;;;;;;;;;;;;5052853;28;19909;-51
2022/04/26 16:44:07;;;;;;;;;;;;;;;;;;5052857;28;19928;-52
2022/04/26 16:46:33;;;;;;;;;;;;;;;;;;5053168;28;19909;-55
2022/04/26 16:49:01;;;;;;;;;;;;;;;;;;5052967;28;19978;-56
2022/04/26 16:51:30;;;;;;;;;;;;;;;;;;5053140;28;19909;-56
2022/04/26 16:53:55;;;;;;;;;;;19.90;79.90;;;;;;5053057;28;19948;-56
2022/04/26 16:56:21;;;;;;;;;;;19.90;80.20;;;;;;5052872;28;19952;-56
2022/04/26 16:58:47;;;;;;;;;;;;;;;;;;5052938;28;19913;-56
2022/04/26 17:01:12;;;;;;;;;;;;;;;;;;5052686;28;19913;-56
2022/04/26 17:03:38;;;;;;;;;;;;;;;;;;5052725;28;20389;-55
2022/04/26 17:06:04;;;;;;;;;;;;;;;;;;5052818;28;19908;-52
2022/04/26 17:08:30;;;;;;;;;;;;;;;;;;5052857;28;19919;-56
2022/04/26 17:11:41;;;;;;;;;;;19.90;79.60;;;;;;5052778;28;19909;-53
2022/04/26 17:13:42;;;;;;;;;;;;;;;;;;5052521;28;19909;-55
2022/04/26 17:16:08;;;;;;;;;;;;;;;;;;5052620;28;19920;-54
2022/04/26 17:18:34;;;;;;;;;;;19.90;80.10;;;;;;5052654;28;20370;-55
2022/04/26 17:20:59;;;;;;;;;;;20.00;80.10;;;;;;5052670;28;20019;-55
2022/04/26 17:23:24;;;;;;;;;;;20.00;79.70;;;;;;5052507;28;20367;-54
2022/04/26 17:25:51;;;;;;;;;;;;;;;;;;5052614;28;19909;-53
2022/04/26 17:28:17;;;;;;;;;;;20.00;80.30;;;;;;5051135;28;20007;-54
2022/04/26 17:30:43;;;;;;;;;;;;;;;;;;5052719;28;19959;-55
2022/04/26 17:33:09;;;;;;;;;;;;;;;;;;5052657;28;19909;-54
2022/04/26 17:35:35;;;;;;;;;;;;;;;;;;5052259;28;19909;-53
2022/04/26 17:38:00;;;;;;;;;;;;;;;;;;5052431;28;20061;-53
2022/04/26 17:40:26;;;;;;;;;;;;;;;;;;5052420;28;19909;-51
2022/04/26 17:42:53;;;;;;;;;;;;;;;;;;5052411;28;20396;-53
2022/04/26 17:45:19;;;;;;;;;;;20.20;78.00;;;;;;5052491;28;19909;-53
2022/04/26 17:47:44;;;;;;;;;;;;;;;;;;5052342;28;19931;-55
2022/04/26 17:50:10;;;;;;;;;;;;;;;;;;5052284;28;19958;-53
2022/04/26 17:58:16;;;;;;;;;;;;;;;;;;5056229;28;20006;-55
2022/04/26 18:00:42;;;;;;;;;;;19.90;77.70;;;;;;5056113;28;19975;-55
2022/04/26 18:03:07;;;;;;;;;;;19.90;81.50;;;;;;5055968;28;20335;-51
2022/04/26 18:05:33;;;;;;;;;;;;;;;;;;5056037;28;19936;-51
2022/04/26 18:07:59;;;;;;;;;;;;;;;;;;5056001;28;19915;-49
2022/04/26 18:10:27;;;;;;;;;;;19.90;81.20;;;;;;5055986;28;19909;-50
2022/04/26 18:12:52;;;;;;;;;;;19.80;79.00;;;;;;5055934;28;20007;-51
2022/04/26 18:15:18;;;;;;;;;;;;;;;;;;5055931;28;20011;-52
2022/04/26 18:17:44;;;;;;;;;;;;;;;;;;5055715;28;19916;-50
2022/04/26 18:20:10;;;;;;;;;;;;;;;;;;5055940;28;20116;-50
2022/04/26 18:22:38;;;;;;;;;;;;;;;;;;5055730;28;19916;-51
2022/04/26 18:25:04;;;;;;;;;;;;;;;;;;5055960;28;19915;-50
2022/04/26 18:27:30;;;;;;;;;;;;;;;;;;5055623;28;19912;-49
2022/04/26 18:29:57;;;;;;;;;;;;;;;;;;5055599;28;19909;-50
2022/04/26 18:32:23;;;;;;;;;;;;;;;;;;5055589;28;19942;-50
2022/04/26 18:34:50;;;;;;;;;;;19.60;81.60;;;;;;5055446;28;19909;-50
2022/04/26 18:37:17;;;;;;;;;;;19.70;81.80;;;;;;5055667;28;19916;-50
2022/04/26 18:39:43;;;;;;;;;;;19.70;81.60;;;;;;5055703;28;19913;-49
2022/04/26 18:42:08;;;;;;;;;;;;;;;;;;5055491;28;19916;-49
2022/04/26 18:44:34;;;;;;;;;;;;;;;;;;5055222;28;19961;-50
2022/04/26 18:47:00;;;;;;;;;;;;;;;;;;5055318;28;19920;-49
2022/04/26 18:49:28;;;;;;;;;;;;;;;;;;5055207;28;20334;-48
2022/04/26 18:51:57;;;;;;;;;;;;;;;;;;5055214;28;19909;-51
2022/04/26 18:54:22;;;;;;;;;;;;;;;;;;5055349;28;20268;-51
2022/04/26 18:56:49;;;;;;;;;;;;;;;;;;5055274;28;19923;-51
2022/04/26 18:59:14;;;;;;;;;;;;;;;;;;5055142;28;19909;-52
2022/04/26 19:01:40;;;;;;;;;;;;;;;;;;5054461;28;19971;-52
2022/04/26 19:04:06;;;;;;;;;;;;;;;;;;5054989;28;19909;-51
2022/04/26 19:06:32;;;;;;;;;;;;;;;;;;5054990;28;19956;-50
2022/04/26 19:08:57;;;;;;;;;;;19.30;82.20;;;;;;5054809;28;19962;-52
2022/04/26 19:14:08;;;;;;;;;;;19.40;82.60;;;;;;5054786;28;19951;-53
2022/04/26 19:16:33;;;;;;;;;;;19.40;82.40;;;;;;5054741;28;19968;-49
2022/04/26 19:18:59;;;;;;;;;;;19.30;82.50;;;;;;5054700;28;20436;-50
2022/04/26 19:21:24;;;;;;;;;;;19.40;79.70;;;;;;5054692;28;19909;-49
2022/04/26 19:23:51;;;;;;;;;;;;;;;;;;5054508;28;19909;-49
2022/04/26 19:26:18;;;;;;;;;;;;;;;;;;5054850;28;19912;-51
2022/04/26 19:28:43;;;;;;;;;;;19.30;82.10;;;;;;5054495;28;20279;-53
2022/04/26 19:31:09;;;;;;;;;;;;;;;;;;5054814;28;20050;-50
2022/04/26 19:33:35;;;;;;;;;;;19.30;82.20;;;;;;5054391;28;19909;-49
2022/04/26 19:36:01;;;;;;;;;;;19.20;81.30;;;;;;5054583;28;19916;-51
2022/04/26 19:38:26;;;;;;;;;;;;;;;;;;5054346;28;20381;-48
2022/04/26 19:40:52;;;;;;;;;;;;;;;;;;5054204;28;19963;-48
2022/04/26 19:43:18;;;;;;;;;;;;;;;;;;5054246;28;20333;-49
2022/04/26 19:45:44;;;;;;;;;;;;;;;;;;5054173;28;20421;-49
2022/04/26 19:48:10;;;;;;;;;;;;;;;;;;5054390;28;19920;-49
2022/04/26 19:53:20;;;;;;;;;;;19.10;79.40;;;;;;5054109;28;19960;-48
2022/04/26 19:55:46;;;;;;;;;;;;;;;;;;5053809;28;20352;-50
2022/04/26 19:58:12;;;;;;;;;;;;;;;;;;5053662;28;19962;-48
2022/04/26 20:00:38;;;;;;;;;;;;;;;;;;5053710;28;19948;-48
2022/04/26 20:03:04;;;;;;;;;;;19.10;82.40;;;;;;5052597;28;19995;-48
2022/04/26 20:05:29;;;;;;;;;;;19.10;82.20;;;;;;5052651;28;19919;-49
2022/04/26 20:07:55;;;;;;;;;;;;;;;;;;5052553;28;19909;-50
2022/04/26 20:10:21;;;;;;;;;;;19.20;82.00;;;;;;5052841;28;19951;-48
2022/04/26 20:12:48;;;;;;;;;;;;;;;;;;5052561;28;19960;-49